sensor_id;sensor_type;location;lat;lon;timestamp;temperature;humidity
24522;DHT22;12680;57.804;12.190;2022-11-15T00:01:14;10.00;99.90
24522;DHT22;12680;57.804;12.190;2022-11-15T00:03:41;10.00;99.90
24522;DHT22;12680;57.804;12.190;2022-11-15T00:06:12;10.00;99.90
24522;DHT22;12680;57.804;12.190;2022-11-15T00:08:39;10.00;99.90
24522;DHT22;12680;57.804;12.190;2022-11-15T00:11:06;10.00;99.90
24522;DHT22;12680;57.804;12.190;2022-11-15T00:13:35;10.00;99.90
24522;DHT22;12680;57.804;12.190;2022-11-15T00:16:02;9.90;99.90
24522;DHT22;12680;57.804;12.190;2022-11-15T00:18:30;9.90;99.90
24522;DHT22;12680;57.804;12.190;2022-11-15T00:21:04;9.90;99.90
24522;DHT22;12680;57.804;12.190;2022-11-15T00:23:33;9.90;99.90
24522;DHT22;12680;57.804;12.190;2022-11-15T00:26:00;9.90;99.90
24522;DHT22;12680;57.804;12.190;2022-11-15T00:28:28;9.90;99.90
24522;DHT22;12680;57.804;12.190;2022-11-15T00:31:03;9.80;99.90
24522;DHT22;12680;57.804;12.190;2022-11-15T00:33:31;9.80;99.90
24522;DHT22;12680;57.804;12.190;2022-11-15T00:36:07;9.80;99.90
24522;DHT22;12680;57.804;12.190;2022-11-15T00:38:38;9.80;99.90
24522;DHT22;12680;57.804;12.190;2022-11-15T00:41:06;9.90;99.90
24522;DHT22;12680;57.804;12.190;2022-11-15T00:43:36;9.90;99.90
24522;DHT22;12680;57.804;12.190;2022-11-15T00:46:03;9.80;99.90
24522;DHT22;12680;57.804;12.190;2022-11-15T00:48:30;9.80;99.90
24522;DHT22;12680;57.804;12.190;2022-11-15T00:50:58;9.80;99.90
24522;DHT22;12680;57.804;12.190;2022-11-15T00:53:25;9.80;99.90
24522;DHT22;12680;57.804;12.190;2022-11-15T00:55:53;9.80;99.90
24522;DHT22;12680;57.804;12.190;2022-11-15T00:58:20;9.80;99.90
24522;DHT22;12680;57.804;12.190;2022-11-15T01:00:47;9.80;99.90
24522;DHT22;12680;57.804;12.190;2022-11-15T01:03:14;9.80;99.90
24522;DHT22;12680;57.804;12.190;2022-11-15T01:05:41;9.80;99.90
24522;DHT22;12680;57.804;12.190;2022-11-15T01:08:13;9.80;99.90
24522;DHT22;12680;57.804;12.190;2022-11-15T01:10:41;9.80;99.90
24522;DHT22;12680;57.804;12.190;2022-11-15T01:13:08;9.80;99.90
24522;DHT22;12680;57.804;12.190;2022-11-15T01:15:39;9.80;99.90
24522;DHT22;12680;57.804;12.190;2022-11-15T01:18:07;9.80;99.90
24522;DHT22;12680;57.804;12.190;2022-11-15T01:20:34;9.80;99.90
24522;DHT22;12680;57.804;12.190;2022-11-15T01:23:01;9.80;99.90
24522;DHT22;12680;57.804;12.190;2022-11-15T01:25:28;9.80;99.90
24522;DHT22;12680;57.804;12.190;2022-11-15T01:27:55;9.90;99.90
24522;DHT22;12680;57.804;12.190;2022-11-15T01:30:22;9.80;99.90
24522;DHT22;12680;57.804;12.190;2022-11-15T01:32:50;9.80;99.90
24522;DHT22;12680;57.804;12.190;2022-11-15T01:35:17;9.80;99.90
24522;DHT22;12680;57.804;12.190;2022-11-15T01:37:44;9.80;99.90
24522;DHT22;12680;57.804;12.190;2022-11-15T01:40:11;9.80;99.90
24522;DHT22;12680;57.804;12.190;2022-11-15T01:42:38;9.80;99.90
24522;DHT22;12680;57.804;12.190;2022-11-15T01:45:07;9.80;99.90
24522;DHT22;12680;57.804;12.190;2022-11-15T01:47:39;9.80;99.90
24522;DHT22;12680;57.804;12.190;2022-11-15T01:50:14;9.80;99.90
24522;DHT22;12680;57.804;12.190;2022-11-15T01:52:42;9.80;99.90
24522;DHT22;12680;57.804;12.190;2022-11-15T01:55:22;9.80;99.90
24522;DHT22;12680;57.804;12.190;2022-11-15T01:57:55;9.70;99.90
24522;DHT22;12680;57.804;12.190;2022-11-15T02:00:24;9.70;99.90
24522;DHT22;12680;57.804;12.190;2022-11-15T02:02:51;9.70;99.90
24522;DHT22;12680;57.804;12.190;2022-11-15T02:05:18;9.70;99.90
24522;DHT22;12680;57.804;12.190;2022-11-15T02:07:46;9.70;99.90
24522;DHT22;12680;57.804;12.190;2022-11-15T02:10:18;9.70;99.90
24522;DHT22;12680;57.804;12.190;2022-11-15T02:12:46;9.70;99.90
24522;DHT22;12680;57.804;12.190;2022-11-15T02:15:14;9.70;99.90
24522;DHT22;12680;57.804;12.190;2022-11-15T02:17:48;9.70;99.90
24522;DHT22;12680;57.804;12.190;2022-11-15T02:20:52;9.70;99.90
24522;DHT22;12680;57.804;12.190;2022-11-15T02:27:16;9.70;99.90
24522;DHT22;12680;57.804;12.190;2022-11-15T02:32:10;9.70;99.90
24522;DHT22;12680;57.804;12.190;2022-11-15T02:35:00;9.70;99.90
24522;DHT22;12680;57.804;12.190;2022-11-15T02:37:58;9.60;99.90
24522;DHT22;12680;57.804;12.190;2022-11-15T02:43:23;9.60;99.90
24522;DHT22;12680;57.804;12.190;2022-11-15T02:46:26;9.60;99.90
24522;DHT22;12680;57.804;12.190;2022-11-15T02:49:15;9.60;99.90
24522;DHT22;12680;57.804;12.190;2022-11-15T02:51:44;9.60;99.90
24522;DHT22;12680;57.804;12.190;2022-11-15T02:54:20;9.60;99.90
24522;DHT22;12680;57.804;12.190;2022-11-15T02:56:50;9.60;99.90
24522;DHT22;12680;57.804;12.190;2022-11-15T02:59:23;9.60;99.90
24522;DHT22;12680;57.804;12.190;2022-11-15T03:02:39;9.60;99.90
24522;DHT22;12680;57.804;12.190;2022-11-15T03:07:44;9.70;99.90
24522;DHT22;12680;57.804;12.190;2022-11-15T03:10:15;9.60;99.90
24522;DHT22;12680;57.804;12.190;2022-11-15T03:12:51;9.60;99.90
24522;DHT22;12680;57.804;12.190;2022-11-15T03:15:32;9.60;99.90
24522;DHT22;12680;57.804;12.190;2022-11-15T03:18:10;9.60;99.90
24522;DHT22;12680;57.804;12.190;2022-11-15T03:20:42;9.60;99.90
24522;DHT22;12680;57.804;12.190;2022-11-15T03:23:11;9.60;99.90
24522;DHT22;12680;57.804;12.190;2022-11-15T03:25:45;9.60;99.90
24522;DHT22;12680;57.804;12.190;2022-11-15T03:28:24;9.50;99.90
24522;DHT22;12680;57.804;12.190;2022-11-15T03:30:53;9.50;99.90
24522;DHT22;12680;57.804;12.190;2022-11-15T03:33:22;9.50;99.90
24522;DHT22;12680;57.804;12.190;2022-11-15T03:35:50;9.40;99.90
24522;DHT22;12680;57.804;12.190;2022-11-15T03:38:26;9.40;99.90
24522;DHT22;12680;57.804;12.190;2022-11-15T03:41:00;9.40;99.90
24522;DHT22;12680;57.804;12.190;2022-11-15T03:43:39;9.40;99.90
24522;DHT22;12680;57.804;12.190;2022-11-15T03:46:14;9.40;99.90
24522;DHT22;12680;57.804;12.190;2022-11-15T03:51:31;9.40;99.90
24522;DHT22;12680;57.804;12.190;2022-11-15T03:53:58;9.40;99.90
24522;DHT22;12680;57.804;12.190;2022-11-15T03:56:25;9.40;99.90
24522;DHT22;12680;57.804;12.190;2022-11-15T03:58:53;9.40;99.90
24522;DHT22;12680;57.804;12.190;2022-11-15T04:01:20;9.40;99.90
24522;DHT22;12680;57.804;12.190;2022-11-15T04:03:47;9.40;99.90
24522;DHT22;12680;57.804;12.190;2022-11-15T04:06:14;9.30;99.90
24522;DHT22;12680;57.804;12.190;2022-11-15T04:08:41;9.30;99.90
24522;DHT22;12680;57.804;12.190;2022-11-15T04:11:09;9.30;99.90
24522;DHT22;12680;57.804;12.190;2022-11-15T04:13:36;9.30;99.90
24522;DHT22;12680;57.804;12.190;2022-11-15T04:16:03;9.30;99.90
24522;DHT22;12680;57.804;12.190;2022-11-15T04:18:30;9.30;99.90
24522;DHT22;12680;57.804;12.190;2022-11-15T04:20:57;9.30;99.90
24522;DHT22;12680;57.804;12.190;2022-11-15T04:23:43;9.30;99.90
24522;DHT22;12680;57.804;12.190;2022-11-15T04:26:29;9.20;99.90
24522;DHT22;12680;57.804;12.190;2022-11-15T04:28:56;9.20;99.90
24522;DHT22;12680;57.804;12.190;2022-11-15T04:31:41;9.20;99.90
24522;DHT22;12680;57.804;12.190;2022-11-15T04:34:08;9.20;99.90
24522;DHT22;12680;57.804;12.190;2022-11-15T04:36:35;9.20;99.90
24522;DHT22;12680;57.804;12.190;2022-11-15T04:39:21;9.20;99.90
24522;DHT22;12680;57.804;12.190;2022-11-15T04:41:48;9.20;99.90
24522;DHT22;12680;57.804;12.190;2022-11-15T04:44:15;9.20;99.90
24522;DHT22;12680;57.804;12.190;2022-11-15T04:46:43;9.20;99.90
24522;DHT22;12680;57.804;12.190;2022-11-15T04:49:10;9.20;99.90
24522;DHT22;12680;57.804;12.190;2022-11-15T04:51:37;9.20;99.90
24522;DHT22;12680;57.804;12.190;2022-11-15T04:54:04;9.10;99.90
24522;DHT22;12680;57.804;12.190;2022-11-15T04:56:31;9.10;99.90
24522;DHT22;12680;57.804;12.190;2022-11-15T04:58:58;9.20;99.90
24522;DHT22;12680;57.804;12.190;2022-11-15T05:01:26;9.20;99.90
24522;DHT22;12680;57.804;12.190;2022-11-15T05:03:53;9.10;99.90
24522;DHT22;12680;57.804;12.190;2022-11-15T05:06:38;9.20;99.90
24522;DHT22;12680;57.804;12.190;2022-11-15T05:09:06;9.20;99.90
24522;DHT22;12680;57.804;12.190;2022-11-15T05:11:33;9.20;99.90
24522;DHT22;12680;57.804;12.190;2022-11-15T05:14:00;9.20;99.90
24522;DHT22;12680;57.804;12.190;2022-11-15T05:16:27;9.20;99.90
24522;DHT22;12680;57.804;12.190;2022-11-15T05:18:54;9.20;99.90
24522;DHT22;12680;57.804;12.190;2022-11-15T05:21:22;9.20;99.90
24522;DHT22;12680;57.804;12.190;2022-11-15T05:23:49;9.20;99.90
24522;DHT22;12680;57.804;12.190;2022-11-15T05:26:17;9.20;99.90
24522;DHT22;12680;57.804;12.190;2022-11-15T05:28:45;9.20;99.90
24522;DHT22;12680;57.804;12.190;2022-11-15T05:31:14;9.20;99.90
24522;DHT22;12680;57.804;12.190;2022-11-15T05:33:42;9.20;99.90
24522;DHT22;12680;57.804;12.190;2022-11-15T05:39:02;9.20;99.90
24522;DHT22;12680;57.804;12.190;2022-11-15T05:41:46;9.20;99.90
24522;DHT22;12680;57.804;12.190;2022-11-15T05:44:16;9.20;99.90
24522;DHT22;12680;57.804;12.190;2022-11-15T05:46:44;9.20;99.90
24522;DHT22;12680;57.804;12.190;2022-11-15T05:49:17;9.20;99.90
24522;DHT22;12680;57.804;12.190;2022-11-15T05:51:48;9.20;99.90
24522;DHT22;12680;57.804;12.190;2022-11-15T05:54:16;9.20;99.90
24522;DHT22;12680;57.804;12.190;2022-11-15T05:56:44;9.20;99.90
24522;DHT22;12680;57.804;12.190;2022-11-15T05:59:12;9.20;99.90
24522;DHT22;12680;57.804;12.190;2022-11-15T06:01:39;9.20;99.90
24522;DHT22;12680;57.804;12.190;2022-11-15T06:04:07;9.20;99.90
24522;DHT22;12680;57.804;12.190;2022-11-15T06:06:34;9.20;99.90
24522;DHT22;12680;57.804;12.190;2022-11-15T06:09:01;9.20;99.90
24522;DHT22;12680;57.804;12.190;2022-11-15T06:11:28;9.10;99.90
24522;DHT22;12680;57.804;12.190;2022-11-15T06:13:56;9.10;99.90
24522;DHT22;12680;57.804;12.190;2022-11-15T06:16:23;9.20;99.90
24522;DHT22;12680;57.804;12.190;2022-11-15T06:18:50;9.20;99.90
24522;DHT22;12680;57.804;12.190;2022-11-15T06:21:18;9.20;99.90
24522;DHT22;12680;57.804;12.190;2022-11-15T06:23:45;9.20;99.90
24522;DHT22;12680;57.804;12.190;2022-11-15T06:26:15;9.10;99.90
24522;DHT22;12680;57.804;12.190;2022-11-15T06:28:43;9.10;99.90
24522;DHT22;12680;57.804;12.190;2022-11-15T06:31:10;9.10;99.90
24522;DHT22;12680;57.804;12.190;2022-11-15T06:33:41;9.10;99.90
24522;DHT22;12680;57.804;12.190;2022-11-15T06:36:10;9.20;99.90
24522;DHT22;12680;57.804;12.190;2022-11-15T06:38:44;9.10;99.90
24522;DHT22;12680;57.804;12.190;2022-11-15T06:41:12;9.10;99.90
24522;DHT22;12680;57.804;12.190;2022-11-15T06:43:40;9.10;99.90
24522;DHT22;12680;57.804;12.190;2022-11-15T06:46:07;9.10;99.90
24522;DHT22;12680;57.804;12.190;2022-11-15T06:48:35;9.10;99.90
24522;DHT22;12680;57.804;12.190;2022-11-15T06:51:04;9.10;99.90
24522;DHT22;12680;57.804;12.190;2022-11-15T06:53:31;9.10;99.90
24522;DHT22;12680;57.804;12.190;2022-11-15T06:56:01;9.10;99.90
24522;DHT22;12680;57.804;12.190;2022-11-15T06:58:28;9.10;99.90
24522;DHT22;12680;57.804;12.190;2022-11-15T07:01:05;9.10;99.90
24522;DHT22;12680;57.804;12.190;2022-11-15T07:03:35;9.20;99.90
24522;DHT22;12680;57.804;12.190;2022-11-15T07:06:03;9.20;99.90
24522;DHT22;12680;57.804;12.190;2022-11-15T07:08:34;9.20;99.90
24522;DHT22;12680;57.804;12.190;2022-11-15T07:11:03;9.20;99.90
24522;DHT22;12680;57.804;12.190;2022-11-15T07:13:32;9.20;99.90
24522;DHT22;12680;57.804;12.190;2022-11-15T07:16:08;9.20;99.90
24522;DHT22;12680;57.804;12.190;2022-11-15T07:18:36;9.20;99.90
24522;DHT22;12680;57.804;12.190;2022-11-15T07:21:05;9.20;99.90
24522;DHT22;12680;57.804;12.190;2022-11-15T07:23:35;9.30;99.90
24522;DHT22;12680;57.804;12.190;2022-11-15T07:26:02;9.30;99.90
24522;DHT22;12680;57.804;12.190;2022-11-15T07:28:29;9.20;99.90
24522;DHT22;12680;57.804;12.190;2022-11-15T07:30:57;9.30;99.90
24522;DHT22;12680;57.804;12.190;2022-11-15T07:33:24;9.30;99.90
24522;DHT22;12680;57.804;12.190;2022-11-15T07:35:51;9.30;99.90
24522;DHT22;12680;57.804;12.190;2022-11-15T07:38:18;9.30;99.90
24522;DHT22;12680;57.804;12.190;2022-11-15T07:40:58;9.30;99.90
24522;DHT22;12680;57.804;12.190;2022-11-15T07:43:26;9.30;99.90
24522;DHT22;12680;57.804;12.190;2022-11-15T07:45:57;9.30;99.90
24522;DHT22;12680;57.804;12.190;2022-11-15T07:48:25;9.30;99.90
24522;DHT22;12680;57.804;12.190;2022-11-15T07:51:13;9.30;99.90
24522;DHT22;12680;57.804;12.190;2022-11-15T07:53:42;9.30;99.90
24522;DHT22;12680;57.804;12.190;2022-11-15T07:56:09;9.30;99.90
24522;DHT22;12680;57.804;12.190;2022-11-15T07:58:37;9.30;99.90
24522;DHT22;12680;57.804;12.190;2022-11-15T08:01:09;9.40;99.90
24522;DHT22;12680;57.804;12.190;2022-11-15T08:03:37;9.40;99.90
24522;DHT22;12680;57.804;12.190;2022-11-15T08:06:04;9.40;99.90
24522;DHT22;12680;57.804;12.190;2022-11-15T08:08:31;9.40;99.90
24522;DHT22;12680;57.804;12.190;2022-11-15T08:10:59;9.50;99.90
24522;DHT22;12680;57.804;12.190;2022-11-15T08:13:26;9.40;99.90
24522;DHT22;12680;57.804;12.190;2022-11-15T08:16:00;9.40;99.90
24522;DHT22;12680;57.804;12.190;2022-11-15T08:18:28;9.50;99.90
24522;DHT22;12680;57.804;12.190;2022-11-15T08:20:59;9.50;99.90
24522;DHT22;12680;57.804;12.190;2022-11-15T08:23:26;9.50;99.90
24522;DHT22;12680;57.804;12.190;2022-11-15T08:26:00;9.50;99.90
24522;DHT22;12680;57.804;12.190;2022-11-15T08:28:29;9.50;99.90
24522;DHT22;12680;57.804;12.190;2022-11-15T08:30:56;9.50;99.90
24522;DHT22;12680;57.804;12.190;2022-11-15T08:33:23;9.50;99.90
24522;DHT22;12680;57.804;12.190;2022-11-15T08:35:51;9.50;99.90
24522;DHT22;12680;57.804;12.190;2022-11-15T08:38:18;9.50;99.90
24522;DHT22;12680;57.804;12.190;2022-11-15T08:40:45;9.60;99.90
24522;DHT22;12680;57.804;12.190;2022-11-15T08:43:12;9.60;99.90
24522;DHT22;12680;57.804;12.190;2022-11-15T08:45:39;9.60;99.90
24522;DHT22;12680;57.804;12.190;2022-11-15T08:48:06;9.60;99.90
24522;DHT22;12680;57.804;12.190;2022-11-15T08:50:34;9.60;99.90
24522;DHT22;12680;57.804;12.190;2022-11-15T08:53:05;9.60;99.90
24522;DHT22;12680;57.804;12.190;2022-11-15T08:55:36;9.70;99.90
24522;DHT22;12680;57.804;12.190;2022-11-15T08:58:04;9.70;99.90
24522;DHT22;12680;57.804;12.190;2022-11-15T09:00:31;9.70;99.90
24522;DHT22;12680;57.804;12.190;2022-11-15T09:02:59;9.80;99.90
24522;DHT22;12680;57.804;12.190;2022-11-15T09:05:26;9.80;99.90
24522;DHT22;12680;57.804;12.190;2022-11-15T09:07:54;9.80;99.90
24522;DHT22;12680;57.804;12.190;2022-11-15T09:10:22;9.80;99.90
24522;DHT22;12680;57.804;12.190;2022-11-15T09:12:49;9.80;99.90
24522;DHT22;12680;57.804;12.190;2022-11-15T09:15:17;9.80;99.90
24522;DHT22;12680;57.804;12.190;2022-11-15T09:17:44;9.80;99.90
24522;DHT22;12680;57.804;12.190;2022-11-15T09:20:11;9.80;99.90
24522;DHT22;12680;57.804;12.190;2022-11-15T09:22:38;9.80;99.90
24522;DHT22;12680;57.804;12.190;2022-11-15T09:25:06;9.90;99.90
24522;DHT22;12680;57.804;12.190;2022-11-15T09:27:36;9.90;99.90
24522;DHT22;12680;57.804;12.190;2022-11-15T09:30:04;9.90;99.90
24522;DHT22;12680;57.804;12.190;2022-11-15T09:32:33;9.90;99.90
24522;DHT22;12680;57.804;12.190;2022-11-15T09:35:05;9.90;99.90
24522;DHT22;12680;57.804;12.190;2022-11-15T09:37:32;9.90;99.90
24522;DHT22;12680;57.804;12.190;2022-11-15T09:40:00;9.90;99.90
24522;DHT22;12680;57.804;12.190;2022-11-15T09:45:42;10.00;99.90
24522;DHT22;12680;57.804;12.190;2022-11-15T09:50:50;10.00;99.90
24522;DHT22;12680;57.804;12.190;2022-11-15T09:53:43;10.00;99.90
24522;DHT22;12680;57.804;12.190;2022-11-15T09:56:41;10.00;99.90
24522;DHT22;12680;57.804;12.190;2022-11-15T10:04:41;10.00;99.90
24522;DHT22;12680;57.804;12.190;2022-11-15T10:07:19;10.00;99.90
24522;DHT22;12680;57.804;12.190;2022-11-15T10:10:28;10.10;99.90
24522;DHT22;12680;57.804;12.190;2022-11-15T10:12:49;10.10;99.90
24522;DHT22;12680;57.804;12.190;2022-11-15T10:15:18;10.10;99.90
24522;DHT22;12680;57.804;12.190;2022-11-15T10:18:14;10.10;99.90
24522;DHT22;12680;57.804;12.190;2022-11-15T10:20:49;10.10;99.90
24522;DHT22;12680;57.804;12.190;2022-11-15T10:23:21;10.10;99.90
24522;DHT22;12680;57.804;12.190;2022-11-15T10:25:52;10.10;99.90
24522;DHT22;12680;57.804;12.190;2022-11-15T10:28:21;10.10;99.90
24522;DHT22;12680;57.804;12.190;2022-11-15T10:30:51;10.10;99.90
24522;DHT22;12680;57.804;12.190;2022-11-15T10:33:32;10.10;99.90
24522;DHT22;12680;57.804;12.190;2022-11-15T10:41:21;10.10;99.90
24522;DHT22;12680;57.804;12.190;2022-11-15T10:46:40;10.00;99.90
24522;DHT22;12680;57.804;12.190;2022-11-15T10:52:15;10.00;99.90
24522;DHT22;12680;57.804;12.190;2022-11-15T10:54:46;10.00;99.90
24522;DHT22;12680;57.804;12.190;2022-11-15T10:57:18;10.00;99.90
24522;DHT22;12680;57.804;12.190;2022-11-15T10:59:52;10.00;99.90
24522;DHT22;12680;57.804;12.190;2022-11-15T11:04:56;10.10;99.90
24522;DHT22;12680;57.804;12.190;2022-11-15T11:07:27;10.10;99.90
24522;DHT22;12680;57.804;12.190;2022-11-15T11:10:27;10.10;99.90
24522;DHT22;12680;57.804;12.190;2022-11-15T11:13:27;10.10;99.90
24522;DHT22;12680;57.804;12.190;2022-11-15T11:21:55;10.20;99.90
24522;DHT22;12680;57.804;12.190;2022-11-15T11:30:06;10.30;99.90
24522;DHT22;12680;57.804;12.190;2022-11-15T11:37:52;10.30;99.90
24522;DHT22;12680;57.804;12.190;2022-11-15T11:46:25;10.40;99.90
24522;DHT22;12680;57.804;12.190;2022-11-15T11:49:08;10.40;99.90
24522;DHT22;12680;57.804;12.190;2022-11-15T11:51:38;10.40;99.90
24522;DHT22;12680;57.804;12.190;2022-11-15T11:54:36;10.40;99.90
24522;DHT22;12680;57.804;12.190;2022-11-15T11:57:11;10.40;99.90
24522;DHT22;12680;57.804;12.190;2022-11-15T11:59:49;10.40;99.90
24522;DHT22;12680;57.804;12.190;2022-11-15T12:02:38;10.40;99.90
24522;DHT22;12680;57.804;12.190;2022-11-15T12:05:18;10.40;99.90
24522;DHT22;12680;57.804;12.190;2022-11-15T12:07:49;10.40;99.90
24522;DHT22;12680;57.804;12.190;2022-11-15T12:10:23;10.50;99.90
24522;DHT22;12680;57.804;12.190;2022-11-15T12:15:25;10.40;99.90
24522;DHT22;12680;57.804;12.190;2022-11-15T12:17:55;10.40;99.90
24522;DHT22;12680;57.804;12.190;2022-11-15T12:20:34;10.40;99.90
24522;DHT22;12680;57.804;12.190;2022-11-15T12:23:16;10.30;99.90
24522;DHT22;12680;57.804;12.190;2022-11-15T12:28:35;10.30;99.90
24522;DHT22;12680;57.804;12.190;2022-11-15T12:31:38;10.30;99.90
24522;DHT22;12680;57.804;12.190;2022-11-15T12:36:56;10.20;99.90
24522;DHT22;12680;57.804;12.190;2022-11-15T12:44:57;10.10;99.90
24522;DHT22;12680;57.804;12.190;2022-11-15T12:47:27;10.10;99.90
24522;DHT22;12680;57.804;12.190;2022-11-15T12:49:54;10.10;99.90
24522;DHT22;12680;57.804;12.190;2022-11-15T12:52:21;10.10;99.90
24522;DHT22;12680;57.804;12.190;2022-11-15T12:54:57;10.10;99.90
24522;DHT22;12680;57.804;12.190;2022-11-15T12:57:33;10.10;99.90
24522;DHT22;12680;57.804;12.190;2022-11-15T13:00:36;10.10;99.90
24522;DHT22;12680;57.804;12.190;2022-11-15T13:03:19;10.10;99.90
24522;DHT22;12680;57.804;12.190;2022-11-15T13:05:55;10.20;99.90
24522;DHT22;12680;57.804;12.190;2022-11-15T13:08:44;10.20;99.90
24522;DHT22;12680;57.804;12.190;2022-11-15T13:11:42;10.20;99.90
24522;DHT22;12680;57.804;12.190;2022-11-15T13:17:36;10.30;99.90
24522;DHT22;12680;57.804;12.190;2022-11-15T13:22:44;10.30;99.90
24522;DHT22;12680;57.804;12.190;2022-11-15T13:27:50;10.20;99.90
24522;DHT22;12680;57.804;12.190;2022-11-15T13:30:23;10.20;99.90
24522;DHT22;12680;57.804;12.190;2022-11-15T13:32:52;10.10;99.90
24522;DHT22;12680;57.804;12.190;2022-11-15T13:35:25;10.20;99.90
24522;DHT22;12680;57.804;12.190;2022-11-15T13:37:55;10.10;99.90
24522;DHT22;12680;57.804;12.190;2022-11-15T13:40:28;10.10;99.90
24522;DHT22;12680;57.804;12.190;2022-11-15T13:42:57;10.00;99.90
24522;DHT22;12680;57.804;12.190;2022-11-15T13:45:25;9.90;99.90
24522;DHT22;12680;57.804;12.190;2022-11-15T13:47:57;9.90;99.90
24522;DHT22;12680;57.804;12.190;2022-11-15T13:50:31;9.80;99.90
24522;DHT22;12680;57.804;12.190;2022-11-15T13:53:02;9.80;99.90
24522;DHT22;12680;57.804;12.190;2022-11-15T13:55:30;9.80;99.90
24522;DHT22;12680;57.804;12.190;2022-11-15T13:58:02;9.70;99.90
24522;DHT22;12680;57.804;12.190;2022-11-15T14:03:25;9.70;99.90
24522;DHT22;12680;57.804;12.190;2022-11-15T14:06:17;9.70;99.90
24522;DHT22;12680;57.804;12.190;2022-11-15T14:11:36;9.70;99.90
24522;DHT22;12680;57.804;12.190;2022-11-15T14:24:38;9.50;99.90
24522;DHT22;12680;57.804;12.190;2022-11-15T14:27:23;9.50;99.90
24522;DHT22;12680;57.804;12.190;2022-11-15T14:29:51;9.40;99.90
24522;DHT22;12680;57.804;12.190;2022-11-15T14:32:23;9.40;99.90
24522;DHT22;12680;57.804;12.190;2022-11-15T14:34:57;9.40;99.90
24522;DHT22;12680;57.804;12.190;2022-11-15T14:37:32;9.30;99.90
24522;DHT22;12680;57.804;12.190;2022-11-15T14:40:04;9.30;99.90
24522;DHT22;12680;57.804;12.190;2022-11-15T14:42:31;9.30;99.90
24522;DHT22;12680;57.804;12.190;2022-11-15T14:44:59;9.30;99.90
24522;DHT22;12680;57.804;12.190;2022-11-15T14:47:26;9.30;99.90
24522;DHT22;12680;57.804;12.190;2022-11-15T14:49:53;9.30;99.90
24522;DHT22;12680;57.804;12.190;2022-11-15T14:52:29;9.30;99.90
24522;DHT22;12680;57.804;12.190;2022-11-15T14:54:59;9.30;99.90
24522;DHT22;12680;57.804;12.190;2022-11-15T14:57:26;9.30;99.90
24522;DHT22;12680;57.804;12.190;2022-11-15T14:59:53;9.20;99.90
24522;DHT22;12680;57.804;12.190;2022-11-15T15:02:23;9.20;99.90
24522;DHT22;12680;57.804;12.190;2022-11-15T15:04:51;9.20;99.90
24522;DHT22;12680;57.804;12.190;2022-11-15T15:07:18;9.20;99.90
24522;DHT22;12680;57.804;12.190;2022-11-15T15:09:46;9.20;99.90
24522;DHT22;12680;57.804;12.190;2022-11-15T15:12:21;9.20;99.90
24522;DHT22;12680;57.804;12.190;2022-11-15T15:14:50;9.20;99.90
24522;DHT22;12680;57.804;12.190;2022-11-15T15:17:17;9.20;99.90
24522;DHT22;12680;57.804;12.190;2022-11-15T15:19:44;9.10;99.90
24522;DHT22;12680;57.804;12.190;2022-11-15T15:22:17;9.10;99.90
24522;DHT22;12680;57.804;12.190;2022-11-15T15:24:45;9.00;99.90
24522;DHT22;12680;57.804;12.190;2022-11-15T15:27:13;9.00;99.90
24522;DHT22;12680;57.804;12.190;2022-11-15T15:29:41;9.00;99.90
24522;DHT22;12680;57.804;12.190;2022-11-15T15:32:09;9.00;99.90
24522;DHT22;12680;57.804;12.190;2022-11-15T15:34:36;9.00;99.90
24522;DHT22;12680;57.804;12.190;2022-11-15T15:37:24;9.00;99.90
24522;DHT22;12680;57.804;12.190;2022-11-15T15:39:55;9.00;99.90
24522;DHT22;12680;57.804;12.190;2022-11-15T15:42:23;9.00;99.90
24522;DHT22;12680;57.804;12.190;2022-11-15T15:44:51;9.00;99.90
24522;DHT22;12680;57.804;12.190;2022-11-15T15:47:22;9.00;99.90
24522;DHT22;12680;57.804;12.190;2022-11-15T15:49:50;9.00;99.90
24522;DHT22;12680;57.804;12.190;2022-11-15T15:52:17;8.90;99.90
24522;DHT22;12680;57.804;12.190;2022-11-15T15:54:44;8.90;99.90
24522;DHT22;12680;57.804;12.190;2022-11-15T15:57:13;8.90;99.90
24522;DHT22;12680;57.804;12.190;2022-11-15T15:59:40;8.90;99.90
24522;DHT22;12680;57.804;12.190;2022-11-15T16:02:12;8.80;99.90
24522;DHT22;12680;57.804;12.190;2022-11-15T16:04:39;8.80;99.90
24522;DHT22;12680;57.804;12.190;2022-11-15T16:07:16;8.70;99.90
24522;DHT22;12680;57.804;12.190;2022-11-15T16:09:44;8.70;99.90
24522;DHT22;12680;57.804;12.190;2022-11-15T16:12:35;8.70;99.90
24522;DHT22;12680;57.804;12.190;2022-11-15T16:15:03;8.60;99.90
24522;DHT22;12680;57.804;12.190;2022-11-15T16:17:32;8.60;99.90
24522;DHT22;12680;57.804;12.190;2022-11-15T16:20:00;8.60;99.90
24522;DHT22;12680;57.804;12.190;2022-11-15T16:22:28;8.60;99.90
24522;DHT22;12680;57.804;12.190;2022-11-15T16:24:56;8.60;99.90
24522;DHT22;12680;57.804;12.190;2022-11-15T16:27:23;8.60;99.90
24522;DHT22;12680;57.804;12.190;2022-11-15T16:29:51;8.60;99.90
24522;DHT22;12680;57.804;12.190;2022-11-15T16:32:18;8.60;99.90
24522;DHT22;12680;57.804;12.190;2022-11-15T16:34:45;8.60;99.90
24522;DHT22;12680;57.804;12.190;2022-11-15T16:37:24;8.60;99.90
24522;DHT22;12680;57.804;12.190;2022-11-15T16:39:51;8.50;99.90
24522;DHT22;12680;57.804;12.190;2022-11-15T16:42:25;8.50;99.90
24522;DHT22;12680;57.804;12.190;2022-11-15T16:44:52;8.50;99.90
24522;DHT22;12680;57.804;12.190;2022-11-15T16:47:19;8.50;99.90
24522;DHT22;12680;57.804;12.190;2022-11-15T16:49:47;8.40;99.90
24522;DHT22;12680;57.804;12.190;2022-11-15T16:52:14;8.40;99.90
24522;DHT22;12680;57.804;12.190;2022-11-15T16:54:47;8.30;99.90
24522;DHT22;12680;57.804;12.190;2022-11-15T16:57:14;8.20;99.90
24522;DHT22;12680;57.804;12.190;2022-11-15T16:59:42;8.20;99.90
24522;DHT22;12680;57.804;12.190;2022-11-15T17:02:12;8.20;99.90
24522;DHT22;12680;57.804;12.190;2022-11-15T17:04:40;8.20;99.90
24522;DHT22;12680;57.804;12.190;2022-11-15T17:07:07;8.10;99.90
24522;DHT22;12680;57.804;12.190;2022-11-15T17:09:35;8.10;99.90
24522;DHT22;12680;57.804;12.190;2022-11-15T17:12:02;8.20;99.90
24522;DHT22;12680;57.804;12.190;2022-11-15T17:14:29;8.10;99.90
24522;DHT22;12680;57.804;12.190;2022-11-15T17:16:56;8.10;99.90
24522;DHT22;12680;57.804;12.190;2022-11-15T17:19:23;8.10;99.90
24522;DHT22;12680;57.804;12.190;2022-11-15T17:21:50;8.10;99.90
24522;DHT22;12680;57.804;12.190;2022-11-15T17:24:18;8.10;99.90
24522;DHT22;12680;57.804;12.190;2022-11-15T17:26:47;8.00;99.90
24522;DHT22;12680;57.804;12.190;2022-11-15T17:29:14;8.10;99.90
24522;DHT22;12680;57.804;12.190;2022-11-15T17:31:41;8.00;99.90
24522;DHT22;12680;57.804;12.190;2022-11-15T17:34:08;8.10;99.90
24522;DHT22;12680;57.804;12.190;2022-11-15T17:36:35;8.10;99.90